sensor_id;sensor_type;location;lat;lon;timestamp;P1;durP1;ratioP1;P2;durP2;ratioP2
73266;SDS011;61495;53.400;7.608;2023-09-30T00:01:17;8.43;;;2.03;;
73266;SDS011;61495;53.400;7.608;2023-09-30T00:03:44;9.45;;;2.40;;
73266;SDS011;61495;53.400;7.608;2023-09-30T00:06:09;9.05;;;2.13;;
73266;SDS011;61495;53.400;7.608;2023-09-30T00:08:35;9.02;;;2.03;;
73266;SDS011;61495;53.400;7.608;2023-09-30T00:11:01;10.65;;;2.70;;
73266;SDS011;61495;53.400;7.608;2023-09-30T00:13:26;6.15;;;1.98;;
73266;SDS011;61495;53.400;7.608;2023-09-30T00:15:52;7.18;;;2.10;;
73266;SDS011;61495;53.400;7.608;2023-09-30T00:18:17;9.15;;;2.20;;
73266;SDS011;61495;53.400;7.608;2023-09-30T00:20:43;11.40;;;2.78;;
73266;SDS011;61495;53.400;7.608;2023-09-30T00:23:08;12.70;;;2.72;;
73266;SDS011;61495;53.400;7.608;2023-09-30T00:25:33;6.82;;;2.13;;
73266;SDS011;61495;53.400;7.608;2023-09-30T00:27:59;11.70;;;2.15;;
73266;SDS011;61495;53.400;7.608;2023-09-30T00:30:24;7.80;;;2.90;;
73266;SDS011;61495;53.400;7.608;2023-09-30T00:32:50;7.93;;;2.33;;
73266;SDS011;61495;53.400;7.608;2023-09-30T00:35:15;14.35;;;4.85;;
73266;SDS011;61495;53.400;7.608;2023-09-30T00:37:41;7.35;;;2.33;;
73266;SDS011;61495;53.400;7.608;2023-09-30T00:40:07;10.68;;;2.63;;
73266;SDS011;61495;53.400;7.608;2023-09-30T00:42:39;7.57;;;2.20;;
73266;SDS011;61495;53.400;7.608;2023-09-30T00:45:05;9.55;;;2.17;;
73266;SDS011;61495;53.400;7.608;2023-09-30T00:47:31;7.32;;;2.25;;
73266;SDS011;61495;53.400;7.608;2023-09-30T00:49:58;9.75;;;3.05;;
73266;SDS011;61495;53.400;7.608;2023-09-30T00:52:24;7.15;;;2.28;;
73266;SDS011;61495;53.400;7.608;2023-09-30T00:54:49;6.28;;;2.28;;
73266;SDS011;61495;53.400;7.608;2023-09-30T00:57:16;7.95;;;2.17;;
73266;SDS011;61495;53.400;7.608;2023-09-30T00:59:45;12.95;;;2.88;;
73266;SDS011;61495;53.400;7.608;2023-09-30T01:02:11;5.97;;;2.08;;
73266;SDS011;61495;53.400;7.608;2023-09-30T01:04:37;6.28;;;2.03;;
73266;SDS011;61495;53.400;7.608;2023-09-30T01:07:03;11.35;;;2.63;;
73266;SDS011;61495;53.400;7.608;2023-09-30T01:09:30;8.35;;;2.15;;
73266;SDS011;61495;53.400;7.608;2023-09-30T01:11:56;7.53;;;2.33;;
73266;SDS011;61495;53.400;7.608;2023-09-30T01:14:25;7.85;;;2.03;;
73266;SDS011;61495;53.400;7.608;2023-09-30T01:16:57;8.43;;;2.33;;
73266;SDS011;61495;53.400;7.608;2023-09-30T01:19:23;9.75;;;2.53;;
73266;SDS011;61495;53.400;7.608;2023-09-30T01:21:51;11.20;;;2.53;;
73266;SDS011;61495;53.400;7.608;2023-09-30T01:24:24;9.05;;;2.78;;
73266;SDS011;61495;53.400;7.608;2023-09-30T01:26:50;7.20;;;2.50;;
73266;SDS011;61495;53.400;7.608;2023-09-30T01:29:16;8.65;;;2.45;;
73266;SDS011;61495;53.400;7.608;2023-09-30T01:31:42;8.68;;;2.20;;
73266;SDS011;61495;53.400;7.608;2023-09-30T01:34:08;5.47;;;2.10;;
73266;SDS011;61495;53.400;7.608;2023-09-30T01:36:35;10.93;;;2.67;;
73266;SDS011;61495;53.400;7.608;2023-09-30T01:39:01;10.10;;;2.60;;
73266;SDS011;61495;53.400;7.608;2023-09-30T01:41:48;9.55;;;2.45;;
73266;SDS011;61495;53.400;7.608;2023-09-30T01:44:25;7.90;;;2.13;;
73266;SDS011;61495;53.400;7.608;2023-09-30T01:47:09;11.30;;;2.55;;
73266;SDS011;61495;53.400;7.608;2023-09-30T01:49:45;8.75;;;2.92;;
73266;SDS011;61495;53.400;7.608;2023-09-30T01:52:22;7.85;;;2.03;;
73266;SDS011;61495;53.400;7.608;2023-09-30T01:54:57;8.93;;;3.05;;
73266;SDS011;61495;53.400;7.608;2023-09-30T01:57:23;9.20;;;2.58;;
73266;SDS011;61495;53.400;7.608;2023-09-30T01:59:48;9.75;;;2.53;;
73266;SDS011;61495;53.400;7.608;2023-09-30T02:02:14;10.00;;;3.25;;
73266;SDS011;61495;53.400;7.608;2023-09-30T02:04:40;9.02;;;2.78;;
73266;SDS011;61495;53.400;7.608;2023-09-30T02:07:06;6.90;;;2.17;;
73266;SDS011;61495;53.400;7.608;2023-09-30T02:09:31;9.57;;;2.10;;
73266;SDS011;61495;53.400;7.608;2023-09-30T02:11:57;8.48;;;2.08;;
73266;SDS011;61495;53.400;7.608;2023-09-30T02:14:22;7.38;;;2.15;;
73266;SDS011;61495;53.400;7.608;2023-09-30T02:16:48;7.13;;;2.05;;
73266;SDS011;61495;53.400;7.608;2023-09-30T02:19:13;8.75;;;2.15;;
73266;SDS011;61495;53.400;7.608;2023-09-30T02:21:38;11.15;;;2.22;;
73266;SDS011;61495;53.400;7.608;2023-09-30T02:24:04;7.25;;;2.38;;
73266;SDS011;61495;53.400;7.608;2023-09-30T02:26:31;5.22;;;1.95;;
73266;SDS011;61495;53.400;7.608;2023-09-30T02:28:57;7.00;;;2.25;;
73266;SDS011;61495;53.400;7.608;2023-09-30T02:31:23;7.53;;;2.72;;
73266;SDS011;61495;53.400;7.608;2023-09-30T02:33:49;7.10;;;2.38;;
73266;SDS011;61495;53.400;7.608;2023-09-30T02:36:14;7.07;;;1.90;;
73266;SDS011;61495;53.400;7.608;2023-09-30T02:38:40;5.53;;;1.92;;
73266;SDS011;61495;53.400;7.608;2023-09-30T02:41:06;8.25;;;2.28;;
73266;SDS011;61495;53.400;7.608;2023-09-30T02:43:32;7.68;;;2.25;;
73266;SDS011;61495;53.400;7.608;2023-09-30T02:45:58;9.02;;;2.45;;
73266;SDS011;61495;53.400;7.608;2023-09-30T02:48:24;8.15;;;1.80;;
73266;SDS011;61495;53.400;7.608;2023-09-30T02:50:49;9.73;;;2.42;;
73266;SDS011;61495;53.400;7.608;2023-09-30T02:53:14;8.15;;;2.30;;
73266;SDS011;61495;53.400;7.608;2023-09-30T02:55:40;8.65;;;2.65;;
73266;SDS011;61495;53.400;7.608;2023-09-30T02:58:07;9.25;;;2.53;;
73266;SDS011;61495;53.400;7.608;2023-09-30T03:00:34;7.93;;;2.13;;
73266;SDS011;61495;53.400;7.608;2023-09-30T03:03:01;8.60;;;2.20;;
73266;SDS011;61495;53.400;7.608;2023-09-30T03:05:27;6.25;;;2.10;;
73266;SDS011;61495;53.400;7.608;2023-09-30T03:07:53;8.80;;;2.30;;
73266;SDS011;61495;53.400;7.608;2023-09-30T03:10:19;4.53;;;1.75;;
73266;SDS011;61495;53.400;7.608;2023-09-30T03:12:46;9.27;;;2.00;;
73266;SDS011;61495;53.400;7.608;2023-09-30T03:15:12;11.10;;;2.25;;
73266;SDS011;61495;53.400;7.608;2023-09-30T03:17:38;7.82;;;2.25;;
73266;SDS011;61495;53.400;7.608;2023-09-30T03:20:03;5.47;;;2.03;;
73266;SDS011;61495;53.400;7.608;2023-09-30T03:22:40;7.82;;;2.00;;
73266;SDS011;61495;53.400;7.608;2023-09-30T03:25:14;4.50;;;1.55;;
73266;SDS011;61495;53.400;7.608;2023-09-30T03:27:43;8.43;;;2.50;;
73266;SDS011;61495;53.400;7.608;2023-09-30T03:30:09;6.88;;;2.03;;
73266;SDS011;61495;53.400;7.608;2023-09-30T03:32:37;6.55;;;2.08;;
73266;SDS011;61495;53.400;7.608;2023-09-30T03:35:06;8.60;;;2.30;;
73266;SDS011;61495;53.400;7.608;2023-09-30T03:37:38;7.78;;;1.92;;
73266;SDS011;61495;53.400;7.608;2023-09-30T03:40:04;8.82;;;2.05;;
73266;SDS011;61495;53.400;7.608;2023-09-30T03:42:38;8.95;;;2.08;;
73266;SDS011;61495;53.400;7.608;2023-09-30T03:45:04;7.60;;;2.05;;
73266;SDS011;61495;53.400;7.608;2023-09-30T03:47:32;6.75;;;1.60;;
73266;SDS011;61495;53.400;7.608;2023-09-30T03:49:59;5.97;;;1.98;;
73266;SDS011;61495;53.400;7.608;2023-09-30T03:52:24;10.27;;;2.30;;
73266;SDS011;61495;53.400;7.608;2023-09-30T03:54:51;5.78;;;2.00;;
73266;SDS011;61495;53.400;7.608;2023-09-30T03:57:18;8.55;;;2.05;;
73266;SDS011;61495;53.400;7.608;2023-09-30T03:59:44;8.73;;;2.17;;
73266;SDS011;61495;53.400;7.608;2023-09-30T04:02:11;10.55;;;2.45;;
73266;SDS011;61495;53.400;7.608;2023-09-30T04:04:36;7.75;;;1.95;;
73266;SDS011;61495;53.400;7.608;2023-09-30T04:07:02;7.88;;;1.90;;
73266;SDS011;61495;53.400;7.608;2023-09-30T04:09:30;6.22;;;2.47;;
73266;SDS011;61495;53.400;7.608;2023-09-30T04:11:57;8.95;;;2.45;;
73266;SDS011;61495;53.400;7.608;2023-09-30T04:14:22;9.40;;;2.42;;
73266;SDS011;61495;53.400;7.608;2023-09-30T04:16:48;9.88;;;2.42;;
73266;SDS011;61495;53.400;7.608;2023-09-30T04:19:13;8.40;;;2.13;;
73266;SDS011;61495;53.400;7.608;2023-09-30T04:21:39;11.23;;;2.33;;
73266;SDS011;61495;53.400;7.608;2023-09-30T04:24:04;7.47;;;1.95;;
73266;SDS011;61495;53.400;7.608;2023-09-30T04:26:32;6.65;;;1.70;;
73266;SDS011;61495;53.400;7.608;2023-09-30T04:28:58;5.40;;;1.75;;
73266;SDS011;61495;53.400;7.608;2023-09-30T04:31:23;7.35;;;2.10;;
73266;SDS011;61495;53.400;7.608;2023-09-30T04:33:49;6.40;;;2.45;;
73266;SDS011;61495;53.400;7.608;2023-09-30T04:36:16;7.15;;;1.80;;
73266;SDS011;61495;53.400;7.608;2023-09-30T04:38:42;10.23;;;2.35;;
73266;SDS011;61495;53.400;7.608;2023-09-30T04:41:08;9.48;;;2.50;;
73266;SDS011;61495;53.400;7.608;2023-09-30T04:43:34;7.32;;;1.95;;
73266;SDS011;61495;53.400;7.608;2023-09-30T04:46:00;4.78;;;1.88;;
73266;SDS011;61495;53.400;7.608;2023-09-30T04:48:26;7.18;;;2.40;;
73266;SDS011;61495;53.400;7.608;2023-09-30T04:50:51;7.05;;;1.65;;
73266;SDS011;61495;53.400;7.608;2023-09-30T04:53:17;6.53;;;2.10;;
73266;SDS011;61495;53.400;7.608;2023-09-30T04:55:44;6.07;;;2.05;;
73266;SDS011;61495;53.400;7.608;2023-09-30T04:58:10;11.52;;;2.75;;
73266;SDS011;61495;53.400;7.608;2023-09-30T05:00:36;8.60;;;2.45;;
73266;SDS011;61495;53.400;7.608;2023-09-30T05:03:02;8.07;;;2.55;;
73266;SDS011;61495;53.400;7.608;2023-09-30T05:05:27;9.63;;;2.30;;
73266;SDS011;61495;53.400;7.608;2023-09-30T05:07:54;10.80;;;3.05;;
73266;SDS011;61495;53.400;7.608;2023-09-30T05:10:19;10.52;;;2.40;;
73266;SDS011;61495;53.400;7.608;2023-09-30T05:12:45;10.10;;;2.33;;
73266;SDS011;61495;53.400;7.608;2023-09-30T05:15:11;9.85;;;2.35;;
73266;SDS011;61495;53.400;7.608;2023-09-30T05:17:38;7.55;;;1.75;;
73266;SDS011;61495;53.400;7.608;2023-09-30T05:20:04;7.63;;;2.20;;
73266;SDS011;61495;53.400;7.608;2023-09-30T05:22:32;6.45;;;2.08;;
73266;SDS011;61495;53.400;7.608;2023-09-30T05:24:58;9.55;;;2.38;;
73266;SDS011;61495;53.400;7.608;2023-09-30T05:27:24;6.38;;;2.22;;
73266;SDS011;61495;53.400;7.608;2023-09-30T05:29:49;9.63;;;1.88;;
73266;SDS011;61495;53.400;7.608;2023-09-30T05:32:14;6.53;;;2.80;;
73266;SDS011;61495;53.400;7.608;2023-09-30T05:34:40;6.78;;;2.10;;
73266;SDS011;61495;53.400;7.608;2023-09-30T05:37:05;8.10;;;3.00;;
73266;SDS011;61495;53.400;7.608;2023-09-30T05:39:30;7.07;;;2.30;;
73266;SDS011;61495;53.400;7.608;2023-09-30T05:41:57;9.95;;;2.30;;
73266;SDS011;61495;53.400;7.608;2023-09-30T05:44:22;7.28;;;2.17;;
73266;SDS011;61495;53.400;7.608;2023-09-30T05:46:48;7.72;;;2.47;;
73266;SDS011;61495;53.400;7.608;2023-09-30T05:49:13;6.57;;;2.10;;
73266;SDS011;61495;53.400;7.608;2023-09-30T05:51:42;5.63;;;2.20;;
73266;SDS011;61495;53.400;7.608;2023-09-30T05:54:08;7.72;;;2.22;;
73266;SDS011;61495;53.400;7.608;2023-09-30T05:56:35;9.85;;;2.25;;
73266;SDS011;61495;53.400;7.608;2023-09-30T05:59:04;8.23;;;3.33;;
73266;SDS011;61495;53.400;7.608;2023-09-30T06:01:30;9.30;;;2.97;;
73266;SDS011;61495;53.400;7.608;2023-09-30T06:04:00;6.72;;;2.38;;
73266;SDS011;61495;53.400;7.608;2023-09-30T06:06:26;9.68;;;2.38;;
73266;SDS011;61495;53.400;7.608;2023-09-30T06:08:54;9.77;;;2.63;;
73266;SDS011;61495;53.400;7.608;2023-09-30T06:11:22;6.95;;;2.53;;
73266;SDS011;61495;53.400;7.608;2023-09-30T06:13:55;6.40;;;2.30;;
73266;SDS011;61495;53.400;7.608;2023-09-30T06:16:21;6.85;;;2.47;;
73266;SDS011;61495;53.400;7.608;2023-09-30T06:18:48;7.57;;;2.70;;
73266;SDS011;61495;53.400;7.608;2023-09-30T06:21:14;7.88;;;2.60;;
73266;SDS011;61495;53.400;7.608;2023-09-30T06:23:42;8.95;;;2.70;;
73266;SDS011;61495;53.400;7.608;2023-09-30T06:26:08;7.95;;;2.60;;
73266;SDS011;61495;53.400;7.608;2023-09-30T06:28:34;9.35;;;2.78;;
73266;SDS011;61495;53.400;7.608;2023-09-30T06:31:06;7.25;;;2.60;;
73266;SDS011;61495;53.400;7.608;2023-09-30T06:33:32;9.02;;;3.05;;
73266;SDS011;61495;53.400;7.608;2023-09-30T06:35:58;9.38;;;3.42;;
73266;SDS011;61495;53.400;7.608;2023-09-30T06:38:27;7.75;;;2.55;;
73266;SDS011;61495;53.400;7.608;2023-09-30T06:40:52;8.15;;;3.42;;
73266;SDS011;61495;53.400;7.608;2023-09-30T06:43:19;12.77;;;3.60;;
73266;SDS011;61495;53.400;7.608;2023-09-30T06:45:45;10.75;;;3.42;;
73266;SDS011;61495;53.400;7.608;2023-09-30T06:48:11;8.32;;;2.80;;
73266;SDS011;61495;53.400;7.608;2023-09-30T06:50:44;7.53;;;3.22;;
73266;SDS011;61495;53.400;7.608;2023-09-30T06:53:11;9.55;;;3.53;;
73266;SDS011;61495;53.400;7.608;2023-09-30T06:55:39;12.23;;;3.60;;
73266;SDS011;61495;53.400;7.608;2023-09-30T06:58:05;10.80;;;3.42;;
73266;SDS011;61495;53.400;7.608;2023-09-30T07:00:32;9.52;;;3.67;;
73266;SDS011;61495;53.400;7.608;2023-09-30T07:02:59;10.43;;;3.00;;
73266;SDS011;61495;53.400;7.608;2023-09-30T07:05:25;10.85;;;3.25;;
73266;SDS011;61495;53.400;7.608;2023-09-30T07:07:51;8.45;;;3.10;;
73266;SDS011;61495;53.400;7.608;2023-09-30T07:10:16;10.30;;;3.20;;
73266;SDS011;61495;53.400;7.608;2023-09-30T07:12:42;8.88;;;2.80;;
73266;SDS011;61495;53.400;7.608;2023-09-30T07:15:08;8.82;;;2.72;;
73266;SDS011;61495;53.400;7.608;2023-09-30T07:17:33;9.85;;;3.15;;
73266;SDS011;61495;53.400;7.608;2023-09-30T07:19:59;12.15;;;2.90;;
73266;SDS011;61495;53.400;7.608;2023-09-30T07:22:24;9.20;;;3.00;;
73266;SDS011;61495;53.400;7.608;2023-09-30T07:24:50;8.02;;;3.35;;
73266;SDS011;61495;53.400;7.608;2023-09-30T07:27:16;7.60;;;3.00;;
73266;SDS011;61495;53.400;7.608;2023-09-30T07:29:41;8.15;;;2.88;;
73266;SDS011;61495;53.400;7.608;2023-09-30T07:32:07;9.32;;;3.28;;
73266;SDS011;61495;53.400;7.608;2023-09-30T07:34:33;9.35;;;2.53;;
73266;SDS011;61495;53.400;7.608;2023-09-30T07:36:59;7.18;;;2.90;;
73266;SDS011;61495;53.400;7.608;2023-09-30T07:39:24;10.88;;;2.65;;
73266;SDS011;61495;53.400;7.608;2023-09-30T07:41:50;7.78;;;2.83;;
73266;SDS011;61495;53.400;7.608;2023-09-30T07:44:15;8.52;;;2.47;;
73266;SDS011;61495;53.400;7.608;2023-09-30T07:46:40;9.35;;;3.15;;
73266;SDS011;61495;53.400;7.608;2023-09-30T07:49:08;10.60;;;3.22;;
73266;SDS011;61495;53.400;7.608;2023-09-30T07:51:35;8.60;;;2.80;;
73266;SDS011;61495;53.400;7.608;2023-09-30T07:54:00;10.38;;;3.13;;
73266;SDS011;61495;53.400;7.608;2023-09-30T07:56:26;9.27;;;2.97;;
73266;SDS011;61495;53.400;7.608;2023-09-30T07:58:51;9.60;;;2.80;;
73266;SDS011;61495;53.400;7.608;2023-09-30T08:01:17;10.52;;;2.80;;
73266;SDS011;61495;53.400;7.608;2023-09-30T08:03:43;8.85;;;3.25;;
73266;SDS011;61495;53.400;7.608;2023-09-30T08:06:08;6.30;;;2.60;;
73266;SDS011;61495;53.400;7.608;2023-09-30T08:08:34;8.77;;;3.03;;
73266;SDS011;61495;53.400;7.608;2023-09-30T08:11:00;7.35;;;2.63;;
73266;SDS011;61495;53.400;7.608;2023-09-30T08:13:26;7.43;;;2.80;;
73266;SDS011;61495;53.400;7.608;2023-09-30T08:15:51;9.60;;;3.03;;
73266;SDS011;61495;53.400;7.608;2023-09-30T08:18:18;8.88;;;2.75;;
73266;SDS011;61495;53.400;7.608;2023-09-30T08:20:44;8.90;;;2.67;;
73266;SDS011;61495;53.400;7.608;2023-09-30T08:23:10;10.00;;;3.42;;
73266;SDS011;61495;53.400;7.608;2023-09-30T08:25:36;9.95;;;2.72;;
73266;SDS011;61495;53.400;7.608;2023-09-30T08:28:02;8.25;;;2.53;;
73266;SDS011;61495;53.400;7.608;2023-09-30T08:30:28;9.00;;;2.80;;
73266;SDS011;61495;53.400;7.608;2023-09-30T08:32:54;8.32;;;3.00;;
73266;SDS011;61495;53.400;7.608;2023-09-30T08:35:19;7.22;;;2.63;;
73266;SDS011;61495;53.400;7.608;2023-09-30T08:37:45;7.82;;;2.72;;
73266;SDS011;61495;53.400;7.608;2023-09-30T08:40:10;7.57;;;2.58;;
73266;SDS011;61495;53.400;7.608;2023-09-30T08:42:37;15.65;;;2.97;;
73266;SDS011;61495;53.400;7.608;2023-09-30T08:45:04;9.52;;;2.83;;
73266;SDS011;61495;53.400;7.608;2023-09-30T08:47:32;9.77;;;3.15;;
73266;SDS011;61495;53.400;7.608;2023-09-30T08:50:00;10.13;;;2.15;;
73266;SDS011;61495;53.400;7.608;2023-09-30T08:52:31;10.68;;;3.13;;
73266;SDS011;61495;53.400;7.608;2023-09-30T08:54:58;7.35;;;2.20;;
73266;SDS011;61495;53.400;7.608;2023-09-30T08:57:24;8.55;;;2.55;;
73266;SDS011;61495;53.400;7.608;2023-09-30T08:59:53;8.85;;;2.70;;
73266;SDS011;61495;53.400;7.608;2023-09-30T09:02:19;8.27;;;3.80;;
73266;SDS011;61495;53.400;7.608;2023-09-30T09:04:47;7.22;;;2.80;;
73266;SDS011;61495;53.400;7.608;2023-09-30T09:07:14;11.23;;;2.80;;
73266;SDS011;61495;53.400;7.608;2023-09-30T09:09:40;10.77;;;2.80;;
73266;SDS011;61495;53.400;7.608;2023-09-30T09:12:05;7.68;;;2.80;;
73266;SDS011;61495;53.400;7.608;2023-09-30T09:14:38;10.05;;;2.70;;
73266;SDS011;61495;53.400;7.608;2023-09-30T09:17:05;10.73;;;3.50;;
73266;SDS011;61495;53.400;7.608;2023-09-30T09:19:32;10.30;;;3.63;;
73266;SDS011;61495;53.400;7.608;2023-09-30T09:21:58;10.18;;;3.50;;
73266;SDS011;61495;53.400;7.608;2023-09-30T09:24:31;9.30;;;3.45;;
73266;SDS011;61495;53.400;7.608;2023-09-30T09:29:33;8.63;;;2.85;;
73266;SDS011;61495;53.400;7.608;2023-09-30T09:32:10;7.38;;;2.70;;
73266;SDS011;61495;53.400;7.608;2023-09-30T09:34:39;8.73;;;2.47;;
73266;SDS011;61495;53.400;7.608;2023-09-30T09:37:12;8.23;;;2.30;;
73266;SDS011;61495;53.400;7.608;2023-09-30T09:39:48;6.05;;;2.50;;
73266;SDS011;61495;53.400;7.608;2023-09-30T09:42:30;7.47;;;2.00;;
73266;SDS011;61495;53.400;7.608;2023-09-30T09:45:05;12.80;;;2.70;;
73266;SDS011;61495;53.400;7.608;2023-09-30T09:47:32;7.50;;;2.55;;
73266;SDS011;61495;53.400;7.608;2023-09-30T09:49:58;10.68;;;2.67;;
73266;SDS011;61495;53.400;7.608;2023-09-30T09:52:25;6.55;;;2.65;;
73266;SDS011;61495;53.400;7.608;2023-09-30T09:54:52;11.07;;;2.70;;
73266;SDS011;61495;53.400;7.608;2023-09-30T09:57:18;10.07;;;2.17;;
73266;SDS011;61495;53.400;7.608;2023-09-30T09:59:44;7.75;;;2.08;;
73266;SDS011;61495;53.400;7.608;2023-09-30T10:02:14;9.88;;;2.47;;
73266;SDS011;61495;53.400;7.608;2023-09-30T10:04:42;5.43;;;1.90;;
73266;SDS011;61495;53.400;7.608;2023-09-30T10:07:09;7.90;;;2.00;;
73266;SDS011;61495;53.400;7.608;2023-09-30T10:09:39;9.35;;;2.08;;
73266;SDS011;61495;53.400;7.608;2023-09-30T10:12:09;9.13;;;2.40;;
73266;SDS011;61495;53.400;7.608;2023-09-30T10:14:35;7.95;;;2.15;;
73266;SDS011;61495;53.400;7.608;2023-09-30T10:17:01;9.18;;;2.47;;
73266;SDS011;61495;53.400;7.608;2023-09-30T10:19:28;6.30;;;1.95;;
73266;SDS011;61495;53.400;7.608;2023-09-30T10:24:43;7.43;;;1.98;;
73266;SDS011;61495;53.400;7.608;2023-09-30T10:33:12;8.05;;;2.50;;
73266;SDS011;61495;53.400;7.608;2023-09-30T10:37:43;7.33;;;1.87;;
73266;SDS011;61495;53.400;7.608;2023-09-30T10:40:10;8.35;;;2.10;;
73266;SDS011;61495;53.400;7.608;2023-09-30T10:42:53;6.78;;;1.58;;
73266;SDS011;61495;53.400;7.608;2023-09-30T10:45:42;8.48;;;2.13;;
73266;SDS011;61495;53.400;7.608;2023-09-30T10:50:51;9.40;;;2.40;;
73266;SDS011;61495;53.400;7.608;2023-09-30T10:53:18;5.18;;;1.63;;
73266;SDS011;61495;53.400;7.608;2023-09-30T10:55:46;8.35;;;2.00;;
73266;SDS011;61495;53.400;7.608;2023-09-30T10:58:15;7.90;;;2.42;;
73266;SDS011;61495;53.400;7.608;2023-09-30T11:00:51;9.30;;;2.30;;
73266;SDS011;61495;53.400;7.608;2023-09-30T11:03:19;6.75;;;1.60;;
73266;SDS011;61495;53.400;7.608;2023-09-30T11:05:48;6.53;;;1.42;;
73266;SDS011;61495;53.400;7.608;2023-09-30T11:08:20;8.77;;;1.65;;
73266;SDS011;61495;53.400;7.608;2023-09-30T11:13:16;7.68;;;1.45;;
73266;SDS011;61495;53.400;7.608;2023-09-30T11:15:45;7.55;;;2.13;;
73266;SDS011;61495;53.400;7.608;2023-09-30T11:18:15;7.00;;;1.60;;
73266;SDS011;61495;53.400;7.608;2023-09-30T11:20:43;8.20;;;1.60;;
73266;SDS011;61495;53.400;7.608;2023-09-30T11:23:10;5.53;;;1.65;;
73266;SDS011;61495;53.400;7.608;2023-09-30T11:25:37;6.75;;;1.65;;
73266;SDS011;61495;53.400;7.608;2023-09-30T11:30:56;7.28;;;1.25;;
73266;SDS011;61495;53.400;7.608;2023-09-30T11:33:22;5.95;;;1.60;;
73266;SDS011;61495;53.400;7.608;2023-09-30T11:38:30;7.97;;;1.30;;
73266;SDS011;61495;53.400;7.608;2023-09-30T11:40:57;6.03;;;1.55;;
73266;SDS011;61495;53.400;7.608;2023-09-30T11:43:28;6.82;;;1.55;;
73266;SDS011;61495;53.400;7.608;2023-09-30T11:46:03;7.38;;;1.33;;
73266;SDS011;61495;53.400;7.608;2023-09-30T11:48:40;6.43;;;1.30;;
73266;SDS011;61495;53.400;7.608;2023-09-30T11:53:49;6.05;;;1.33;;
73266;SDS011;61495;53.400;7.608;2023-09-30T11:56:25;5.93;;;1.52;;
73266;SDS011;61495;53.400;7.608;2023-09-30T11:58:54;6.97;;;1.58;;
73266;SDS011;61495;53.400;7.608;2023-09-30T12:01:20;7.85;;;1.77;;
73266;SDS011;61495;53.400;7.608;2023-09-30T12:03:47;7.35;;;1.45;;
73266;SDS011;61495;53.400;7.608;2023-09-30T12:06:13;4.72;;;1.88;;
73266;SDS011;61495;53.400;7.608;2023-09-30T12:08:38;4.63;;;1.25;;
73266;SDS011;61495;53.400;7.608;2023-09-30T12:11:04;4.60;;;1.50;;
73266;SDS011;61495;53.400;7.608;2023-09-30T12:13:30;6.45;;;1.30;;
73266;SDS011;61495;53.400;7.608;2023-09-30T12:15:56;6.45;;;1.48;;
73266;SDS011;61495;53.400;7.608;2023-09-30T12:18:22;5.68;;;1.40;;
73266;SDS011;61495;53.400;7.608;2023-09-30T12:20:52;6.38;;;1.20;;
73266;SDS011;61495;53.400;7.608;2023-09-30T12:23:18;4.75;;;0.88;;
73266;SDS011;61495;53.400;7.608;2023-09-30T12:25:45;5.15;;;1.42;;
73266;SDS011;61495;53.400;7.608;2023-09-30T12:28:10;5.07;;;1.38;;
73266;SDS011;61495;53.400;7.608;2023-09-30T12:30:36;7.38;;;1.25;;
73266;SDS011;61495;53.400;7.608;2023-09-30T12:33:01;4.82;;;1.60;;
73266;SDS011;61495;53.400;7.608;2023-09-30T12:35:27;4.20;;;0.88;;
73266;SDS011;61495;53.400;7.608;2023-09-30T12:37:52;4.88;;;1.02;;
73266;SDS011;61495;53.400;7.608;2023-09-30T12:40:18;6.43;;;1.15;;
73266;SDS011;61495;53.400;7.608;2023-09-30T12:42:44;4.60;;;1.15;;
73266;SDS011;61495;53.400;7.608;2023-09-30T12:45:10;5.43;;;1.00;;
73266;SDS011;61495;53.400;7.608;2023-09-30T12:47:36;4.65;;;1.30;;
73266;SDS011;61495;53.400;7.608;2023-09-30T12:50:01;7.00;;;1.27;;
73266;SDS011;61495;53.400;7.608;2023-09-30T12:52:28;6.90;;;1.40;;
73266;SDS011;61495;53.400;7.608;2023-09-30T12:54:55;5.05;;;1.30;;
73266;SDS011;61495;53.400;7.608;2023-09-30T12:57:20;6.68;;;1.38;;
73266;SDS011;61495;53.400;7.608;2023-09-30T12:59:46;5.70;;;1.42;;
73266;SDS011;61495;53.400;7.608;2023-09-30T13:02:12;6.95;;;1.08;;
73266;SDS011;61495;53.400;7.608;2023-09-30T13:04:38;4.65;;;0.88;;
73266;SDS011;61495;53.400;7.608;2023-09-30T13:07:08;5.32;;;1.30;;
73266;SDS011;61495;53.400;7.608;2023-09-30T13:09:38;6.72;;;2.03;;
73266;SDS011;61495;53.400;7.608;2023-09-30T13:12:04;6.82;;;1.23;;
73266;SDS011;61495;53.400;7.608;2023-09-30T13:14:29;5.03;;;1.42;;
73266;SDS011;61495;53.400;7.608;2023-09-30T13:16:55;4.57;;;1.40;;
73266;SDS011;61495;53.400;7.608;2023-09-30T13:19:20;5.38;;;1.42;;
73266;SDS011;61495;53.400;7.608;2023-09-30T13:21:46;5.70;;;1.60;;
73266;SDS011;61495;53.400;7.608;2023-09-30T13:24:13;4.72;;;1.10;;
73266;SDS011;61495;53.400;7.608;2023-09-30T13:26:39;6.53;;;1.63;;
73266;SDS011;61495;53.400;7.608;2023-09-30T13:29:04;4.47;;;1.27;;
73266;SDS011;61495;53.400;7.608;2023-09-30T13:31:35;7.35;;;1.20;;
73266;SDS011;61495;53.400;7.608;2023-09-30T13:34:04;4.57;;;1.27;;
73266;SDS011;61495;53.400;7.608;2023-09-30T13:36:30;6.05;;;1.80;;
73266;SDS011;61495;53.400;7.608;2023-09-30T13:38:56;7.78;;;1.73;;
73266;SDS011;61495;53.400;7.608;2023-09-30T13:41:21;5.63;;;1.10;;
73266;SDS011;61495;53.400;7.608;2023-09-30T13:43:47;4.85;;;1.40;;
73266;SDS011;61495;53.400;7.608;2023-09-30T13:46:12;6.43;;;1.27;;
73266;SDS011;61495;53.400;7.608;2023-09-30T13:48:38;4.75;;;1.23;;
73266;SDS011;61495;53.400;7.608;2023-09-30T13:51:08;4.50;;;1.02;;
73266;SDS011;61495;53.400;7.608;2023-09-30T13:53:34;5.55;;;0.90;;
73266;SDS011;61495;53.400;7.608;2023-09-30T13:56:02;3.60;;;1.10;;
73266;SDS011;61495;53.400;7.608;2023-09-30T13:58:31;4.50;;;1.02;;
73266;SDS011;61495;53.400;7.608;2023-09-30T14:00:57;4.43;;;1.75;;
73266;SDS011;61495;53.400;7.608;2023-09-30T14:03:22;4.70;;;0.95;;
73266;SDS011;61495;53.400;7.608;2023-09-30T14:05:51;4.30;;;1.10;;
73266;SDS011;61495;53.400;7.608;2023-09-30T14:08:18;6.05;;;1.15;;
73266;SDS011;61495;53.400;7.608;2023-09-30T14:10:44;4.90;;;1.38;;
73266;SDS011;61495;53.400;7.608;2023-09-30T14:13:10;4.43;;;1.00;;
73266;SDS011;61495;53.400;7.608;2023-09-30T14:15:37;5.47;;;1.23;;
73266;SDS011;61495;53.400;7.608;2023-09-30T14:18:03;5.38;;;1.17;;
73266;SDS011;61495;53.400;7.608;2023-09-30T14:20:29;4.55;;;1.05;;
73266;SDS011;61495;53.400;7.608;2023-09-30T14:22:55;7.45;;;1.58;;
73266;SDS011;61495;53.400;7.608;2023-09-30T14:25:23;5.82;;;1.20;;
73266;SDS011;61495;53.400;7.608;2023-09-30T14:27:49;5.05;;;1.00;;
73266;SDS011;61495;53.400;7.608;2023-09-30T14:30:14;6.18;;;1.08;;
73266;SDS011;61495;53.400;7.608;2023-09-30T14:32:41;4.70;;;0.98;;
73266;SDS011;61495;53.400;7.608;2023-09-30T14:35:07;4.97;;;1.10;;
73266;SDS011;61495;53.400;7.608;2023-09-30T14:37:34;5.72;;;1.10;;
73266;SDS011;61495;53.400;7.608;2023-09-30T14:40:00;7.65;;;1.55;;
73266;SDS011;61495;53.400;7.608;2023-09-30T14:42:25;4.63;;;1.30;;
73266;SDS011;61495;53.400;7.608;2023-09-30T14:44:51;4.55;;;1.40;;
73266;SDS011;61495;53.400;7.608;2023-09-30T14:47:17;5.95;;;1.35;;
73266;SDS011;61495;53.400;7.608;2023-09-30T14:49:49;4.80;;;1.23;;
73266;SDS011;61495;53.400;7.608;2023-09-30T14:52:14;3.67;;;1.05;;
73266;SDS011;61495;53.400;7.608;2023-09-30T14:54:40;4.38;;;1.10;;
73266;SDS011;61495;53.400;7.608;2023-09-30T14:57:07;4.78;;;1.33;;
73266;SDS011;61495;53.400;7.608;2023-09-30T14:59:35;8.18;;;1.45;;
73266;SDS011;61495;53.400;7.608;2023-09-30T15:02:00;4.10;;;1.50;;
73266;SDS011;61495;53.400;7.608;2023-09-30T15:04:26;6.40;;;1.35;;
73266;SDS011;61495;53.400;7.608;2023-09-30T15:06:53;6.13;;;1.20;;
73266;SDS011;61495;53.400;7.608;2023-09-30T15:09:19;5.20;;;1.10;;
73266;SDS011;61495;53.400;7.608;2023-09-30T15:11:44;5.50;;;1.33;;